Time;durP1;ratioP1;P1;durP2;ratioP2;P2;SDS_P1;SDS_P2;PMS_P1;PMS_P2;Temp;Humidity;BMP_temperature;BMP_pressure;BME280_temperature;BME280_humidity;BME280_pressure;Samples;Min_cycle;Max_cycle;Signal;HPM_P1;HPM_P2
2022/03/28 00:01:10;;;;;;;0.10;0.10;;;;;;;23.58;14.21;98653.53;5079957;28;20471;-73
2022/03/28 00:03:36;;;;;;;0.10;0.10;;;;;;;23.58;14.05;98648.09;5080057;28;20032;-74
2022/03/28 00:06:03;;;;;;;0.10;0.10;;;;;;;23.57;14.41;98641.00;5079931;28;20036;-73
2022/03/28 00:08:28;;;;;;;0.10;0.10;;;;;;;23.56;14.39;98628.47;5064393;28;20053;-73
2022/03/28 00:10:54;;;;;;;0.17;0.17;;;;;;;23.56;14.62;98618.41;5059934;28;20029;-73
2022/03/28 00:13:19;;;;;;;0.10;0.10;;;;;;;23.56;14.28;98609.41;5059597;28;20029;-74
2022/03/28 00:15:45;;;;;;;0.10;0.10;;;;;;;23.56;14.44;98603.94;5059539;28;20036;-74
2022/03/28 00:18:10;;;;;;;0.10;0.10;;;;;;;23.57;14.51;98592.72;5059913;28;20138;-73
2022/03/28 00:20:36;;;;;;;0.10;0.10;;;;;;;23.55;14.38;98599.63;5059854;28;20371;-74
2022/03/28 00:23:03;;;;;;;0.13;0.13;;;;;;;23.56;14.57;98577.50;5059803;28;20102;-73
2022/03/28 00:25:28;;;;;;;0.13;0.13;;;;;;;23.56;14.57;98574.78;5059480;28;20029;-73
2022/03/28 00:27:54;;;;;;;0.20;0.20;;;;;;;23.56;14.55;98563.06;5059486;28;20032;-74
2022/03/28 00:30:19;;;;;;;0.10;0.10;;;;;;;23.55;14.32;98561.47;5059717;28;20029;-73
2022/03/28 00:32:47;;;;;;;0.10;0.10;;;;;;;23.57;14.71;98556.50;5057478;28;20071;-73
2022/03/28 00:35:12;;;;;;;0.20;0.20;;;;;;;23.54;14.68;98543.50;5056549;28;20040;-73
2022/03/28 00:37:41;;;;;;;0.10;0.10;;;;;;;23.56;14.65;98541.25;5038331;28;20033;-73
2022/03/28 00:40:10;;;;;;;0.10;0.10;;;;;;;23.54;14.78;98525.22;5056391;28;20029;-72
2022/03/28 00:42:37;;;;;;;0.10;0.10;;;;;;;23.52;14.96;98513.03;5056302;28;20120;-72
2022/03/28 00:45:06;;;;;;;0.10;0.10;;;;;;;23.54;14.98;98511.59;5038511;28;20025;-72
2022/03/28 00:47:32;;;;;;;0.20;0.20;;;;;;;23.55;15.04;98506.94;5055998;28;20053;-72
2022/03/28 00:49:57;;;;;;;0.15;0.15;;;;;;;23.55;15.14;98502.28;5056263;28;20091;-72
2022/03/28 00:52:23;;;;;;;0.20;0.20;;;;;;;23.54;15.17;98480.78;5056244;28;20520;-72
2022/03/28 00:54:48;;;;;;;0.10;0.10;;;;;;;23.56;15.21;98486.72;5037987;28;20033;-71
2022/03/28 00:57:14;;;;;;;0.10;0.10;;;;;;;23.58;15.23;98479.03;5056396;28;20028;-72
2022/03/28 00:59:39;;;;;;;0.20;0.20;;;;;;;23.56;15.61;98467.63;5055955;28;20025;-72
2022/03/28 01:02:06;;;;;;;0.10;0.10;;;;;;;23.56;15.34;98449.38;5055936;28;20478;-73
2022/03/28 01:04:31;;;;;;;0.20;0.20;;;;;;;23.58;15.83;98440.88;5055716;28;20024;-72
2022/03/28 01:06:57;;;;;;;0.20;0.20;;;;;;;23.56;15.61;98445.81;5058266;28;20025;-72
2022/03/28 01:09:22;;;;;;;0.17;0.17;;;;;;;23.55;15.85;98428.66;5076051;28;20055;-72
2022/03/28 01:11:49;;;;;;;0.17;0.17;;;;;;;23.59;15.87;98423.38;5076183;28;20031;-72
2022/03/28 01:14:14;;;;;;;0.20;0.20;;;;;;;23.55;16.11;98420.47;5041306;28;20028;-72
2022/03/28 01:19:24;;;;;;;0.10;0.10;;;;;;;23.57;16.27;98403.81;5075475;28;20032;-72
2022/03/28 01:21:50;;;;;;;0.10;0.10;;;;;;;23.55;16.37;98397.88;5075372;28;20471;-72
2022/03/28 01:24:16;;;;;;;0.10;0.10;;;;;;;23.55;16.48;98393.22;5075317;28;20383;-72
2022/03/28 01:26:42;;;;;;;0.20;0.20;;;;;;;23.58;16.24;98380.88;5075378;28;20027;-72
2022/03/28 01:29:07;;;;;;;0.20;0.20;;;;;;;23.54;16.51;98374.44;5057810;28;20159;-73
2022/03/28 01:31:39;;;;;;;0.20;0.20;;;;;;;23.57;16.54;98362.91;5075093;28;20043;-73
2022/03/28 01:34:05;;;;;;;0.20;0.20;;;;;;;23.52;16.56;98349.44;5057819;28;20463;-72
2022/03/28 01:36:30;;;;;;;0.20;0.20;;;;;;;23.58;16.30;98348.16;5075495;28;20021;-72
2022/03/28 01:38:55;;;;;;;0.20;0.20;;;;;;;23.58;16.64;98335.31;5075295;28;20032;-74
2022/03/28 01:41:21;;;;;;;0.20;0.20;;;;;;;23.58;16.96;98331.81;5075181;28;20032;-73
2022/03/28 01:43:46;;;;;;;0.20;0.20;;;;;;;23.58;16.76;98318.97;5075255;28;20025;-74
2022/03/28 01:46:12;;;;;;;0.10;0.10;;;;;;;23.58;16.89;98323.63;5076296;28;20025;-74
2022/03/28 01:48:37;;;;;;;0.22;0.22;;;;;;;23.58;16.67;98301.81;5076940;28;20027;-74
2022/03/28 01:51:03;;;;;;;0.20;0.20;;;;;;;23.57;16.82;98297.47;5077132;28;20028;-74
2022/03/28 01:53:28;;;;;;;0.20;0.20;;;;;;;23.57;17.07;98297.47;5076641;28;20032;-74
2022/03/28 01:55:53;;;;;;;0.20;0.20;;;;;;;23.59;17.00;98297.94;5077225;28;20025;-74
2022/03/28 01:58:19;;;;;;;0.22;0.20;;;;;;;23.59;16.99;98284.31;5076831;28;20086;-74
2022/03/28 02:00:45;;;;;;;0.20;0.20;;;;;;;23.58;17.07;98282.72;5076300;28;20020;-74
2022/03/28 02:03:10;;;;;;;0.20;0.20;;;;;;;23.58;16.97;98275.34;5074374;28;20033;-73
2022/03/28 02:05:36;;;;;;;0.30;0.30;;;;;;;23.58;17.07;98274.56;5074898;28;20028;-73
2022/03/28 02:08:02;;;;;;;0.20;0.20;;;;;;;23.51;17.11;98255.16;5063000;28;20044;-73
2022/03/28 02:10:27;;;;;;;0.20;0.20;;;;;;;23.58;17.14;98266.38;5036618;28;20040;-73
2022/03/28 02:12:52;;;;;;;0.20;0.20;;;;;;;23.56;17.10;98263.97;5054767;28;20025;-74
2022/03/28 02:15:19;;;;;;;0.20;0.20;;;;;;;23.57;16.86;98260.09;5054693;28;20076;-74
2022/03/28 02:17:44;;;;;;;0.20;0.20;;;;;;;23.56;17.17;98253.06;5054259;28;20459;-73
2022/03/28 02:20:10;;;;;;;0.25;0.25;;;;;;;23.56;17.33;98252.25;5054350;28;20032;-74
2022/03/28 02:22:36;;;;;;;0.20;0.20;;;;;;;23.55;17.30;98248.72;5054430;28;20029;-73
2022/03/28 02:25:03;;;;;;;0.30;0.25;;;;;;;23.56;17.31;98246.78;5054456;28;20451;-74
2022/03/28 02:27:28;;;;;;;0.20;0.20;;;;;;;23.56;17.28;98239.44;5036879;28;20079;-73
2022/03/28 02:29:54;;;;;;;0.20;0.20;;;;;;;23.56;17.62;98224.97;5054322;28;20025;-74
2022/03/28 02:32:19;;;;;;;0.20;0.20;;;;;;;23.53;17.41;98229.19;5054417;28;20095;-74
2022/03/28 02:34:44;;;;;;;0.20;0.20;;;;;;;23.55;17.58;98235.09;5036701;28;20419;-73
2022/03/28 02:37:10;;;;;;;0.20;0.20;;;;;;;23.58;17.41;98211.84;5054273;28;20461;-72
2022/03/28 02:39:35;;;;;;;0.20;0.20;;;;;;;23.57;17.69;98218.41;5053586;28;20467;-72
2022/03/28 02:42:01;;;;;;;0.28;0.28;;;;;;;23.57;17.37;98216.47;5053937;28;20025;-72
2022/03/28 02:44:26;;;;;;;0.30;0.30;;;;;;;23.56;17.64;98214.91;5053845;28;20033;-72
2022/03/28 02:46:52;;;;;;;0.20;0.20;;;;;;;23.56;17.68;98216.81;5036116;28;20028;-72
2022/03/28 02:49:19;;;;;;;0.45;0.20;;;;;;;23.56;17.68;98203.16;5054085;28;20025;-72
2022/03/28 02:51:44;;;;;;;0.38;0.30;;;;;;;23.55;17.89;98202.38;5053736;28;20383;-72
2022/03/28 02:54:10;;;;;;;0.20;0.20;;;;;;;23.54;17.89;98184.44;5054572;28;20032;-72
2022/03/28 02:56:35;;;;;;;0.20;0.20;;;;;;;23.53;17.69;98166.47;5053486;28;20464;-71
2022/03/28 02:59:01;;;;;;;0.20;0.20;;;;;;;23.54;17.68;98164.53;5035721;28;20025;-71
2022/03/28 03:01:27;;;;;;;0.20;0.20;;;;;;;23.55;17.71;98163.41;5053582;28;20075;-72
2022/03/28 03:03:52;;;;;;;0.20;0.20;;;;;;;23.53;17.27;98168.41;5053864;28;20020;-72
2022/03/28 03:06:18;;;;;;;0.20;0.20;;;;;;;23.57;17.73;98163.88;5054349;28;20448;-72
2022/03/28 03:08:43;;;;;;;0.20;0.20;;;;;;;23.54;17.70;98140.00;5070568;28;20475;-72
2022/03/28 03:11:09;;;;;;;0.20;0.20;;;;;;;23.60;17.52;98150.41;5055821;28;20024;-72
2022/03/28 03:13:36;;;;;;;1.13;0.30;;;;;;;23.66;17.68;98161.91;5073311;28;20084;-74
2022/03/28 03:16:01;;;;;;;0.45;0.30;;;;;;;23.74;17.80;98161.06;5073610;28;20024;-73
2022/03/28 03:18:27;;;;;;;0.17;0.17;;;;;;;23.76;17.71;98158.81;5073406;28;20033;-72
2022/03/28 03:20:55;;;;;;;0.20;0.20;;;;;;;23.80;17.74;98137.94;5056005;28;20036;-73
2022/03/28 03:23:21;;;;;;;0.63;0.30;;;;;;;23.86;17.81;98145.97;5055513;28;20028;-72
2022/03/28 03:25:49;;;;;;;0.47;0.20;;;;;;;23.88;17.69;98144.50;5074356;28;20363;-73
2022/03/28 03:28:15;;;;;;;0.20;0.20;;;;;;;23.90;17.86;98135.97;5074338;28;20051;-72
2022/03/28 03:30:41;;;;;;;0.38;0.22;;;;;;;23.97;17.62;98138.97;5073411;28;20107;-72
2022/03/28 03:33:07;;;;;;;0.20;0.20;;;;;;;24.00;17.52;98128.19;5073616;28;20098;-71
2022/03/28 03:35:33;;;;;;;0.20;0.20;;;;;;;24.04;17.70;98133.78;5073519;28;20394;-72
2022/03/28 03:37:58;;;;;;;0.20;0.20;;;;;;;24.07;17.75;98135.88;5073156;28;20021;-72
2022/03/28 03:40:24;;;;;;;0.22;0.22;;;;;;;24.12;17.64;98127.47;5073250;28;20028;-72
2022/03/28 03:42:49;;;;;;;0.10;0.10;;;;;;;24.02;17.81;98108.78;5073239;28;20020;-72
2022/03/28 03:45:15;;;;;;;0.20;0.20;;;;;;;24.16;17.62;98100.31;5073509;28;20066;-72
2022/03/28 03:47:40;;;;;;;0.30;0.30;;;;;;;24.21;18.01;98104.78;5072398;28;20076;-72
2022/03/28 03:50:06;;;;;;;0.20;0.20;;;;;;;24.19;17.87;98103.19;5073137;28;20033;-72
2022/03/28 03:52:32;;;;;;;0.20;0.20;;;;;;;24.24;17.72;98101.41;5055264;28;20020;-72
2022/03/28 03:54:57;;;;;;;0.20;0.20;;;;;;;24.27;17.82;98095.28;5073486;28;20024;-72
2022/03/28 03:57:23;;;;;;;0.20;0.20;;;;;;;24.26;18.35;98091.72;5073339;28;20032;-72
2022/03/28 03:59:48;;;;;;;0.20;0.20;;;;;;;24.41;18.05;98084.88;5073308;28;20024;-72
2022/03/28 04:02:13;;;;;;;0.95;0.20;;;;;;;24.46;18.10;98072.94;5059121;28;20024;-72
2022/03/28 04:04:39;;;;;;;0.28;0.20;;;;;;;24.51;17.59;98062.59;5055825;28;20029;-72
2022/03/28 04:07:04;;;;;;;0.25;0.20;;;;;;;24.66;17.51;98071.31;5069066;28;20120;-72
2022/03/28 04:09:30;;;;;;;0.20;0.20;;;;;;;24.76;17.36;98065.41;5056448;28;20029;-77
2022/03/28 04:11:55;;;;;;;0.15;0.15;;;;;;;24.84;17.63;98055.56;5056751;28;20367;-76
2022/03/28 04:14:21;;;;;;;0.20;0.20;;;;;;;25.02;16.89;98058.84;5056389;28;20483;-78
2022/03/28 04:16:46;;;;;;;0.20;0.20;;;;;;;25.08;16.90;98052.84;5057047;28;20025;-78
2022/03/28 04:19:13;;;;;;;2.15;0.20;;;;;;;25.09;16.87;98048.97;5057088;28;20430;-77
2022/03/28 04:21:38;;;;;;;2.05;0.40;;;;;;;25.20;16.82;98043.84;5056876;28;20107;-77
2022/03/28 04:24:04;;;;;;;0.20;0.20;;;;;;;25.31;16.85;98041.47;5057245;28;20028;-77
2022/03/28 04:26:29;;;;;;;0.20;0.20;;;;;;;25.39;16.45;98035.09;5056950;28;20463;-77
2022/03/28 04:28:55;;;;;;;0.10;0.10;;;;;;;25.48;16.76;98024.81;5057111;28;20375;-77
2022/03/28 04:31:20;;;;;;;0.20;0.20;;;;;;;25.45;16.47;98032.91;5057274;28;20502;-77
2022/03/28 04:33:45;;;;;;;0.30;0.28;;;;;;;25.55;16.35;98024.25;5057149;28;20029;-77
2022/03/28 04:36:11;;;;;;;0.13;0.13;;;;;;;25.59;16.22;98021.63;5057119;28;20472;-77
2022/03/28 04:38:37;;;;;;;0.20;0.20;;;;;;;25.54;16.32;98032.78;5058559;28;20025;-76
2022/03/28 04:41:02;;;;;;;0.22;0.20;;;;;;;25.46;16.42;98035.31;5058585;28;20091;-73
2022/03/28 04:43:28;;;;;;;0.15;0.15;;;;;;;25.48;16.11;98027.56;5057011;28;20037;-74
2022/03/28 04:45:53;;;;;;;0.28;0.28;;;;;;;25.50;16.13;98032.69;5057375;28;20021;-74
2022/03/28 04:48:19;;;;;;;0.68;0.20;;;;;;;25.47;16.13;98027.91;5057947;28;20025;-74
2022/03/28 04:50:44;;;;;;;0.15;0.15;;;;;;;25.47;16.34;98036.09;5039245;28;20063;-74
2022/03/28 04:53:09;;;;;;;0.28;0.28;;;;;;;25.44;16.19;98031.31;5056785;28;20025;-74
2022/03/28 04:55:35;;;;;;;0.10;0.10;;;;;;;25.43;16.29;98029.72;5057986;28;20028;-74
2022/03/28 04:58:00;;;;;;;0.20;0.20;;;;;;;25.34;16.63;98027.13;5057119;28;20024;-74
2022/03/28 05:00:26;;;;;;;0.68;0.20;;;;;;;25.37;16.33;98020.97;5057595;28;20036;-74
2022/03/28 05:02:51;;;;;;;0.82;0.22;;;;;;;25.34;16.38;98020.88;5057239;28;20035;-75
2022/03/28 05:05:19;;;;;;;1.23;0.30;;;;;;;25.30;16.21;98010.63;5056568;28;20021;-74
2022/03/28 05:07:45;;;;;;;0.30;0.20;;;;;;;25.30;16.65;98007.88;5064958;28;20041;-74
2022/03/28 05:10:14;;;;;;;1.65;0.30;;;;;;;25.28;16.57;97996.50;5075669;28;20056;-73
2022/03/28 05:12:40;;;;;;;2.55;0.40;;;;;;;25.33;16.70;98003.66;5075654;28;20033;-72
2022/03/28 05:15:06;;;;;;;0.85;0.40;;;;;;;25.33;16.58;97995.44;5075445;28;20021;-74
2022/03/28 05:17:31;;;;;;;1.63;0.40;;;;;;;25.31;16.67;97992.28;5075012;28;20032;-73
2022/03/28 05:19:57;;;;;;;3.13;0.40;;;;;;;25.28;16.44;97995.69;5074600;28;20029;-73
2022/03/28 05:22:23;;;;;;;0.73;0.30;;;;;;;25.27;16.45;97981.22;5075122;28;20031;-72
2022/03/28 05:24:51;;;;;;;3.40;0.50;;;;;;;25.22;16.53;97989.63;5075526;28;20051;-73
2022/03/28 05:27:17;;;;;;;0.73;0.40;;;;;;;25.23;16.54;97979.47;5058265;28;20095;-73
2022/03/28 05:29:43;;;;;;;1.85;0.50;;;;;;;25.24;16.19;97978.34;5075273;28;20024;-73
2022/03/28 05:32:09;;;;;;;1.08;0.50;;;;;;;25.15;16.22;97978.47;5075361;28;20498;-73
2022/03/28 05:34:34;;;;;;;1.17;0.43;;;;;;;25.17;16.50;97976.19;5075618;28;20031;-73
2022/03/28 05:37:00;;;;;;;2.47;0.40;;;;;;;25.21;15.98;97977.09;5057357;28;20387;-73
2022/03/28 05:39:26;;;;;;;1.25;0.55;;;;;;;25.24;16.25;97981.09;5074923;28;20052;-73
2022/03/28 05:41:52;;;;;;;0.75;0.40;;;;;;;25.17;16.31;97967.22;5075528;28;20035;-73
2022/03/28 05:44:18;;;;;;;0.60;0.50;;;;;;;25.19;16.43;97973.91;5076061;28;20059;-73
2022/03/28 05:46:44;;;;;;;2.33;0.57;;;;;;;25.21;16.48;97970.84;5058807;28;20024;-73
2022/03/28 05:49:09;;;;;;;3.70;0.60;;;;;;;25.27;16.40;97953.09;5075602;28;20078;-73
2022/03/28 05:51:35;;;;;;;2.55;0.55;;;;;;;25.27;16.25;97955.84;5076467;28;20390;-73
2022/03/28 05:54:00;;;;;;;2.28;0.70;;;;;;;25.26;16.58;97949.56;5075999;28;20486;-73
2022/03/28 05:56:27;;;;;;;1.30;0.65;;;;;;;25.32;16.37;97935.66;5076700;28;20028;-72
2022/03/28 05:58:52;;;;;;;3.92;0.90;;;;;;;25.34;16.32;97933.38;5078044;28;20024;-73
2022/03/28 06:01:18;;;;;;;4.18;1.35;;;;;;;25.36;16.30;97925.63;5076435;28;20028;-73
2022/03/28 06:03:43;;;;;;;3.35;1.40;;;;;;;25.34;16.41;97923.25;5058031;28;20035;-73
2022/03/28 06:06:09;;;;;;;1.83;1.15;;;;;;;25.40;16.48;97910.13;5078518;28;20025;-73
2022/03/28 06:08:35;;;;;;;2.38;1.10;;;;;;;25.34;16.39;97911.53;5059120;28;20051;-73
2022/03/28 06:11:03;;;;;;;5.85;1.10;;;;;;;25.44;16.23;97900.06;5077049;28;20395;-72
2022/03/28 06:13:29;;;;;;;2.35;1.05;;;;;;;25.42;16.61;97891.44;5076396;28;20087;-73
2022/03/28 06:15:55;;;;;;;2.28;0.90;;;;;;;25.44;16.56;97892.69;5076527;28;20028;-73
2022/03/28 06:18:20;;;;;;;2.28;1.10;;;;;;;25.46;16.47;97878.69;5079781;28;20040;-73
2022/03/28 06:20:45;;;;;;;2.70;1.05;;;;;;;25.47;16.55;97888.44;5079005;28;20020;-73
2022/03/28 06:23:12;;;;;;;6.68;1.77;;;;;;;25.44;16.49;97878.19;5079068;28;20020;-72
2022/03/28 06:25:37;;;;;;;5.95;2.40;;;;;;;25.45;16.77;97874.34;5076147;28;20048;-72
2022/03/28 06:28:03;;;;;;;5.20;2.58;;;;;;;25.41;17.34;97868.78;5075520;28;20482;-74
2022/03/28 06:30:29;;;;;;;7.05;2.50;;;;;;;25.47;17.20;97872.03;5078237;28;20035;-72
2022/03/28 06:32:55;;;;;;;4.75;2.10;;;;;;;25.46;16.47;97868.53;5076411;28;20024;-73
2022/03/28 06:35:21;;;;;;;5.40;2.33;;;;;;;25.67;16.20;97868.31;5076834;28;20038;-72
2022/03/28 06:37:50;;;;;;;5.10;1.85;;;;;;;25.78;16.12;97867.81;5075090;28;20036;-73
2022/03/28 06:40:16;;;;;;;6.25;2.03;;;;;;;25.77;16.29;97868.97;5074144;28;20025;-73
2022/03/28 06:42:42;;;;;;;5.50;2.50;;;;;;;25.90;15.97;97872.41;5056460;28;20482;-73
2022/03/28 06:45:10;;;;;;;4.78;2.08;;;;;;;26.01;15.79;97876.28;5074268;28;20032;-73
2022/03/28 06:47:36;;;;;;;5.82;2.22;;;;;;;26.00;15.55;97877.41;5074530;28;20033;-73
2022/03/28 06:50:02;;;;;;;5.00;1.77;;;;;;;26.13;15.48;97862.50;5074572;28;20386;-73
2022/03/28 06:52:27;;;;;;;4.22;1.38;;;;;;;26.17;15.50;97865.34;5056424;28;20027;-73
2022/03/28 06:54:53;;;;;;;3.38;1.35;;;;;;;26.14;15.89;97871.50;5057694;28;20423;-73
2022/03/28 06:57:19;;;;;;;4.50;1.42;;;;;;;26.16;15.69;97864.53;5057172;28;20510;-72
2022/03/28 06:59:53;;;;;;;4.10;1.25;;;;;;;26.19;15.30;97868.50;5074796;28;20024;-73
2022/03/28 07:02:18;;;;;;;;;;;;;;;26.48;15.14;97872.75;5075013;28;20070;-71
2022/03/28 07:04:44;;;;;;;6.13;1.80;;;;;;;26.33;14.96;97868.84;5074780;28;19912;-73
2022/03/28 07:07:09;;;;;;;3.95;1.80;;;;;;;26.24;15.05;97862.78;5077666;28;20293;-71
2022/03/28 07:09:35;;;;;;;5.22;1.92;;;;;;;26.24;15.19;97866.28;5075482;28;20032;-73
2022/03/28 07:12:03;;;;;;;2.70;1.65;;;;;;;26.11;15.29;97867.50;5074975;28;20032;-73
2022/03/28 07:14:28;;;;;;;7.13;2.33;;;;;;;26.19;15.32;97861.09;5076107;28;20043;-72
2022/03/28 07:16:53;;;;;;;6.72;2.42;;;;;;;26.20;15.19;97867.38;5075625;28;20048;-72
2022/03/28 07:19:19;;;;;;;5.50;2.40;;;;;;;26.18;15.23;97877.84;5075140;28;20158;-74
2022/03/28 07:21:44;;;;;;;5.40;2.33;;;;;;;26.18;15.49;97872.38;5077179;28;20070;-73
2022/03/28 07:24:10;;;;;;;7.53;2.30;;;;;;;26.08;15.33;97864.69;5074704;28;20032;-72
2022/03/28 07:26:36;;;;;;;4.85;2.10;;;;;;;25.99;15.40;97870.34;5074317;28;20056;-73
2022/03/28 07:29:03;;;;;;;6.07;2.00;;;;;;;26.09;15.49;97864.34;5074361;28;20028;-74
2022/03/28 07:31:29;;;;;;;3.40;1.90;;;;;;;26.08;15.13;97853.75;5074574;28;20036;-72
2022/03/28 07:34:29;;;;;;;6.20;2.25;;;;;;;26.10;15.17;97856.94;5075004;28;20059;-73
2022/03/28 07:36:40;;;;;;;4.07;2.10;;;;;;;26.12;15.35;97847.22;5077788;28;20043;-73
2022/03/28 07:39:06;;;;;;;3.70;1.70;;;;;;;26.13;15.38;97854.31;5070583;28;20024;-72
2022/03/28 07:41:31;;;;;;;6.70;1.70;;;;;;;26.21;15.10;97853.31;5081092;28;20166;-71
2022/03/28 07:43:56;;;;;;;7.45;2.50;;;;;;;26.18;15.04;97842.28;5091332;28;20023;-73
2022/03/28 07:46:22;;;;;;;12.48;4.43;;;;;;;26.32;15.14;97834.44;5094870;28;20025;-75
2022/03/28 07:48:47;;;;;;;8.93;4.03;;;;;;;26.35;14.88;97838.38;5098233;28;20028;-75
2022/03/28 07:51:13;;;;;;;8.48;4.55;;;;;;;26.49;14.63;97837.94;5100751;28;20047;-74
2022/03/28 07:53:39;;;;;;;8.38;3.40;;;;;;;26.65;14.55;97838.75;5100535;28;20028;-75
2022/03/28 07:56:04;;;;;;;7.30;3.05;;;;;;;26.72;14.31;97851.81;5081500;28;20032;-75
2022/03/28 07:58:30;;;;;;;6.93;2.80;;;;;;;26.75;14.20;97849.16;5065399;28;20052;-75
2022/03/28 08:00:55;;;;;;;6.30;2.08;;;;;;;26.87;14.24;97858.38;5098642;28;20061;-76
2022/03/28 08:03:21;;;;;;;4.20;2.05;;;;;;;26.86;13.97;97823.94;5099895;28;20056;-75
2022/03/28 08:05:46;;;;;;;4.40;1.88;;;;;;;26.93;13.70;97856.97;5098700;28;20062;-74
2022/03/28 08:08:13;;;;;;;2.80;1.75;;;;;;;26.85;13.68;97856.00;5067347;28;20118;-74
2022/03/28 08:10:38;;;;;;;4.35;1.73;;;;;;;27.05;13.82;97869.75;5077484;28;20079;-74
2022/03/28 08:13:04;;;;;;;4.00;1.67;;;;;;;26.68;13.72;97827.06;5074767;28;20021;-74
2022/03/28 08:15:30;;;;;;;2.72;1.58;;;;;;;27.18;13.42;97857.47;5075494;28;20041;-75
2022/03/28 08:17:59;;;;;;;3.72;1.60;;;;;;;27.07;13.40;97843.56;5056464;28;20037;-74
2022/03/28 08:20:24;;;;;;;3.63;1.70;;;;;;;27.30;13.05;97848.34;5053558;28;20021;-73
2022/03/28 08:22:50;;;;;;;3.53;1.70;;;;;;;27.20;13.19;97848.91;5064121;28;20033;-72
2022/03/28 08:25:16;;;;;;;3.47;1.67;;;;;;;27.46;12.86;97838.13;5063444;28;20025;-71
2022/03/28 08:27:42;;;;;;;3.35;1.23;;;;;;;27.48;12.92;97844.03;5046758;28;20032;-73
2022/03/28 08:30:08;;;;;;;3.88;1.25;;;;;;;27.65;12.65;97844.75;5065718;28;20025;-73
2022/03/28 08:32:33;;;;;;;1.50;1.00;;;;;;;27.61;12.68;97830.94;5064590;28;20028;-73
2022/03/28 08:34:59;;;;;;;2.95;1.20;;;;;;;27.79;12.53;97831.28;5064372;28;20115;-73
2022/03/28 08:37:27;;;;;;;1.38;0.88;;;;;;;27.86;12.36;97828.66;5065362;28;20037;-73
2022/03/28 08:39:55;;;;;;;1.75;0.90;;;;;;;27.95;12.34;97835.91;5050785;28;20037;-73
2022/03/28 08:42:22;;;;;;;2.15;0.80;;;;;;;27.89;12.29;97847.16;5069731;28;20065;-73
2022/03/28 08:44:47;;;;;;;1.33;0.70;;;;;;;28.01;12.25;97842.66;5050519;28;20021;-73
2022/03/28 08:47:13;;;;;;;1.52;0.75;;;;;;;27.92;12.16;97818.19;5068395;28;20483;-73
2022/03/28 08:49:39;;;;;;;1.40;0.80;;;;;;;28.10;12.09;97834.97;5050763;28;20029;-73
2022/03/28 08:52:04;;;;;;;1.02;0.52;;;;;;;28.02;12.03;97844.25;5065866;28;20021;-74
2022/03/28 08:54:30;;;;;;;1.45;0.68;;;;;;;27.88;11.83;97818.09;5061950;28;20132;-74
2022/03/28 08:56:55;;;;;;;0.80;0.55;;;;;;;28.16;11.95;97849.19;5047398;28;20044;-72
2022/03/28 08:59:21;;;;;;;2.10;0.60;;;;;;;28.16;12.00;97855.47;5067273;28;20112;-72
2022/03/28 09:01:48;;;;;;;1.00;0.45;;;;;;;28.19;12.08;97857.47;5032469;28;20041;-72
2022/03/28 09:04:15;;;;;;;0.85;0.50;;;;;;;28.18;11.90;97844.94;5028189;28;20040;-72
2022/03/28 09:06:42;;;;;;;1.65;0.70;;;;;;;28.31;11.45;97858.47;5068538;28;20025;-73
2022/03/28 09:09:12;;;;;;;1.02;0.70;;;;;;;28.39;11.54;97851.91;5089887;28;20036;-73
2022/03/28 09:11:37;;;;;;;0.95;0.50;;;;;;;28.13;12.09;97850.72;5088894;28;20043;-73
2022/03/28 09:14:03;;;;;;;2.90;0.57;;;;;;;28.10;11.95;97863.22;5070575;28;20025;-72
2022/03/28 09:16:33;;;;;;;0.75;0.43;;;;;;;28.13;11.75;97858.97;5085217;28;20028;-74
2022/03/28 09:18:58;;;;;;;1.85;0.43;;;;;;;28.37;11.66;97846.00;5081531;28;20024;-74
2022/03/28 09:21:24;;;;;;;0.93;0.40;;;;;;;28.25;11.74;97845.03;5078697;28;20021;-71
2022/03/28 09:23:51;;;;;;;0.93;0.55;;;;;;;28.23;11.53;97838.31;5080143;28;20029;-72
2022/03/28 09:26:18;;;;;;;0.68;0.40;;;;;;;28.38;11.55;97840.13;5061942;28;20069;-73
2022/03/28 09:29:03;;;;;;;2.92;0.45;;;;;;;28.43;11.52;97844.53;5077210;28;20409;-73
2022/03/28 09:31:31;;;;;;;1.13;0.40;;;;;;;28.40;11.49;97848.78;5078178;28;20038;-73
2022/03/28 09:34:16;;;;;;;1.98;0.52;;;;;;;28.21;11.69;97846.91;5075623;28;20032;-73
2022/03/28 09:36:46;;;;;;;1.17;0.55;;;;;;;28.06;11.74;97834.13;5075633;28;20161;-72
2022/03/28 09:39:41;;;;;;;3.25;0.50;;;;;;;28.02;11.67;97850.53;5076004;28;20415;-72
2022/03/28 09:42:08;;;;;;;0.77;0.50;;;;;;;27.97;11.87;97850.03;5072446;28;20045;-73
2022/03/28 09:44:46;;;;;;;0.93;0.43;;;;;;;27.97;11.81;97850.03;5075775;28;20062;-71
2022/03/28 09:47:17;;;;;;;0.93;0.38;;;;;;;27.79;12.01;97857.94;5076332;28;20482;-72
2022/03/28 09:49:43;;;;;;;2.00;0.70;;;;;;;27.80;11.89;97860.28;5075439;28;20051;-73
2022/03/28 09:52:14;;;;;;;1.48;0.63;;;;;;;27.74;12.01;97867.25;5076172;28;20025;-73
2022/03/28 09:54:47;;;;;;;1.08;0.60;;;;;;;27.61;12.18;97863.84;5075176;28;20029;-73
2022/03/28 09:57:13;;;;;;;1.30;0.63;;;;;;;27.51;12.22;97857.03;5074696;28;20466;-72
2022/03/28 09:59:39;;;;;;;2.55;0.60;;;;;;;27.49;12.48;97862.09;5075032;28;20035;-72
2022/03/28 10:02:14;;;;;;;3.55;0.60;;;;;;;27.37;12.50;97862.22;5074653;28;20024;-72
2022/03/28 10:04:40;;;;;;;3.30;0.70;;;;;;;27.23;12.54;97870.91;5078691;28;20032;-73
2022/03/28 10:07:05;;;;;;;2.97;0.70;;;;;;;27.28;12.91;97865.16;5058414;28;20048;-74
2022/03/28 10:09:31;;;;;;;1.95;0.60;;;;;;;27.25;12.63;97873.28;5076098;28;20035;-74
2022/03/28 10:11:56;;;;;;;4.28;0.75;;;;;;;27.28;12.75;97867.91;5075238;28;20029;-75
2022/03/28 10:14:21;;;;;;;2.80;0.77;;;;;;;27.04;12.86;97879.91;5057952;28;20025;-73
2022/03/28 10:16:47;;;;;;;2.05;0.77;;;;;;;27.07;12.56;97879.19;5041802;28;20031;-75
2022/03/28 10:19:13;;;;;;;1.45;0.77;;;;;;;27.10;12.56;97880.44;5076108;28;20051;-74
2022/03/28 10:21:38;;;;;;;1.05;0.65;;;;;;;26.94;12.78;97873.06;5077204;28;20093;-74
2022/03/28 10:24:13;;;;;;;3.25;0.88;;;;;;;27.01;12.84;97879.81;5076560;28;20454;-75
2022/03/28 10:26:42;;;;;;;3.40;0.60;;;;;;;27.05;12.76;97873.28;5075334;28;20041;-74
2022/03/28 10:29:17;;;;;;;3.15;0.73;;;;;;;27.05;13.02;97881.50;5077221;28;20031;-75
2022/03/28 10:31:55;;;;;;;1.58;0.80;;;;;;;26.85;13.27;97877.13;5081199;28;20153;-74
2022/03/28 10:34:46;;;;;;;2.85;0.60;;;;;;;26.77;13.24;97882.44;5078320;28;20090;-76
2022/03/28 10:37:34;;;;;;;1.10;0.40;;;;;;;26.94;12.99;97880.47;5078800;28;20032;-75
2022/03/28 10:40:12;;;;;;;1.45;0.50;;;;;;;26.78;13.16;97861.31;5075470;28;20386;-75
2022/03/28 10:42:38;;;;;;;1.80;0.43;;;;;;;26.79;13.24;97862.91;5075693;28;20021;-75
2022/03/28 10:45:05;;;;;;;2.40;0.55;;;;;;;26.75;13.36;97862.84;5076545;28;20024;-75
2022/03/28 10:47:44;;;;;;;1.27;0.40;;;;;;;26.79;13.25;97871.13;5075980;28;20082;-73
2022/03/28 10:50:11;;;;;;;0.35;0.30;;;;;;;26.85;12.91;97877.91;5075102;28;20115;-75
2022/03/28 10:52:36;;;;;;;1.08;0.47;;;;;;;26.88;12.73;97904.59;5058057;28;20039;-77
2022/03/28 10:55:08;;;;;;;2.25;0.50;;;;;;;27.01;13.00;97896.28;5057759;28;20054;-74
2022/03/28 10:57:34;;;;;;;0.95;0.40;;;;;;;26.98;12.96;97915.03;5075009;28;20028;-74
2022/03/28 11:00:08;;;;;;;0.93;0.45;;;;;;;27.06;12.98;97907.78;5074396;28;20027;-74
2022/03/28 11:02:35;;;;;;;0.57;0.30;;;;;;;27.05;12.92;97908.13;5057196;28;20036;-75
2022/03/28 11:05:08;;;;;;;2.58;0.40;;;;;;;27.29;12.98;97896.94;5075124;28;20031;-73
2022/03/28 11:07:34;;;;;;;0.77;0.40;;;;;;;27.35;13.33;97895.50;5074560;28;20121;-70
2022/03/28 11:10:01;;;;;;;0.40;0.40;;;;;;;27.14;13.30;97895.78;5076033;28;20067;-72
2022/03/28 11:12:29;;;;;;;0.47;0.32;;;;;;;27.56;13.21;97888.84;5075156;28;20048;-74
2022/03/28 11:14:59;;;;;;;0.50;0.50;;;;;;;27.56;13.06;97888.84;5079399;28;20025;-72
2022/03/28 11:17:26;;;;;;;2.53;0.50;;;;;;;27.65;13.06;97888.63;5078287;28;20036;-73
2022/03/28 11:20:13;;;;;;;2.25;0.52;;;;;;;27.87;13.08;97890.63;5079195;28;20240;-72
2022/03/28 11:22:56;;;;;;;1.48;0.52;;;;;;;27.81;13.09;97886.59;5075346;28;20033;-72
2022/03/28 11:25:51;;;;;;;0.60;0.50;;;;;;;27.65;13.37;97888.63;5074944;28;20074;-72
2022/03/28 11:28:23;;;;;;;0.75;0.50;;;;;;;27.78;13.09;97884.56;5075554;28;20052;-74
2022/03/28 11:30:58;;;;;;;1.77;0.80;;;;;;;28.05;12.68;97890.97;5075571;28;20374;-73
2022/03/28 11:33:28;;;;;;;0.55;0.35;;;;;;;28.00;12.96;97901.47;5073479;28;20173;-74
2022/03/28 11:36:21;;;;;;;3.28;0.60;;;;;;;28.03;12.60;97918.00;5074230;28;20060;-73